This is the latest recevied weather packets stored in our database for station/object N3TCR-13. If no packets are shown the sender has not sent any weather packets the latest 10 day(s).
| Time | Temp. | Humidity | Pressure | Rain* | Wind** | Luminosity | Snow |
|---|---|---|---|---|---|---|---|
| 1778179541 | 17.22° C | 39% | 993.4 hPa | 0 mm | - | - | - |
| 1778176817 | 16.67° C | 42% | 994.1 hPa | 0 mm | - | - | - |
| 1778175017 | 16.11° C | 43% | 994.5 hPa | 0 mm | - | - | - |
| 1778173217 | 15.56° C | 42% | 994.7 hPa | 0 mm | - | - | - |
| 1778172357 | 15.56° C | 43% | 994.9 hPa | 0 mm | - | - | - |
| 1778169637 | 15° C | 46% | 995.4 hPa | 0 mm | - | - | - |
| 1778166017 | 13.33° C | 53% | 996.4 hPa | 0 mm | - | - | - |
| 1778164217 | 12.22° C | 55% | 996.7 hPa | 0 mm | - | - | - |
| 1778163317 | 12.22° C | 59% | 996.8 hPa | 0 mm | - | - | - |
| 1778160617 | 11.67° C | 78% | 997.3 hPa | 0 mm | - | - | - |
| 1778155217 | 10.56° C | 100% | 997 hPa | 0 mm | - | - | - |
| 1778148017 | 10.56° C | 100% | 996 hPa | 0 mm | - | - | - |
| 1778145318 | 10.56° C | 100% | 996.1 hPa | 0 mm | - | - | - |
| 1778138117 | 11.11° C | 100% | 995.4 hPa | 0 mm | - | - | - |
| 1778123717 | 14.44° C | 100% | 994.8 hPa | 0 mm | - | - | - |
| 1778121937 | 14.44° C | 100% | 994.6 hPa | 0 mm | - | - | - |
| 1778120117 | 15° C | 100% | 994.6 hPa | 0 mm | - | - | - |
| 1778119218 | 15° C | 100% | 994.6 hPa | 0 mm | - | - | - |
| 1778117421 | 16.11° C | 100% | 994.5 hPa | 0 mm | - | - | - |
| 1778112017 | 17.78° C | 100% | 993.8 hPa | 0.25 mm | - | - | - |
| 1778107516 | 20° C | 100% | 993.1 hPa | 0 mm | - | - | - |
| 1778103917 | 19.44° C | 100% | 993 hPa | 0 mm | - | - | - |
| 1778100317 | 19.44° C | 100% | 992.4 hPa | 0 mm | - | - | - |
| 1778094017 | 19.44° C | 100% | 992.9 hPa | 0 mm | - | - | - |
| 1778093117 | 19.44° C | 100% | 993.1 hPa | 0 mm | - | - | - |
* Rain latest hour (hover to see other rain measurements)
** Current wind speed in m/s (hover to see current wind gust speed)